createdAt,value
2022-10-17T00:01:21.965Z,79.17
2022-10-17T00:03:50.090Z,78.96
2022-10-17T00:06:18.126Z,79.03
2022-10-17T00:08:46.544Z,79.61
2022-10-17T00:11:18.744Z,79.76
2022-10-17T00:13:49.653Z,79.04
2022-10-17T00:16:29.601Z,79.24
2022-10-17T00:18:59.850Z,79.76
2022-10-17T00:21:27.881Z,79.57
2022-10-17T00:23:55.863Z,79.75
2022-10-17T00:26:24.456Z,79.63
2022-10-17T00:28:53.353Z,79.34
2022-10-17T00:31:23.990Z,79.34
2022-10-17T00:33:52.910Z,79.39
2022-10-17T00:36:25.022Z,79.59
2022-10-17T00:38:58.696Z,79.98
2022-10-17T00:41:33.503Z,80.02
2022-10-17T00:44:29.680Z,80.01
2022-10-17T00:46:58.475Z,79.98
2022-10-17T00:49:28.957Z,79.86
2022-10-17T00:52:00.884Z,79.80
2022-10-17T00:54:36.060Z,79.48
2022-10-17T00:57:04.653Z,79.43
2022-10-17T00:59:36.173Z,79.46
2022-10-17T01:02:10.144Z,79.59
2022-10-17T01:04:40.600Z,79.78
2022-10-17T01:07:09.398Z,79.49
2022-10-17T01:09:38.257Z,79.68
2022-10-17T01:12:06.202Z,80.11
2022-10-17T01:14:48.185Z,80.34
2022-10-17T01:17:30.122Z,79.90
2022-10-17T01:20:06.088Z,79.52
2022-10-17T01:23:12.828Z,79.24
2022-10-17T01:25:41.158Z,79.17
2022-10-17T01:28:55.766Z,79.16
2022-10-17T01:31:54.220Z,78.93
2022-10-17T01:34:39.857Z,78.75
2022-10-17T01:37:31.696Z,79.22
2022-10-17T01:39:59.648Z,79.14
2022-10-17T01:42:37.910Z,78.83
2022-10-17T01:45:25.812Z,79.38
2022-10-17T01:47:57.683Z,79.43
2022-10-17T01:50:34.173Z,79.54
2022-10-17T01:53:11.871Z,78.67
2022-10-17T01:55:45.322Z,78.55
2022-10-17T01:58:19.856Z,78.40
2022-10-17T02:00:49.813Z,78.35
2022-10-17T02:03:21.186Z,78.44
2022-10-17T02:05:49.546Z,78.34
2022-10-17T02:08:56.010Z,78.33
2022-10-17T02:11:28.165Z,78.70
2022-10-17T02:14:19.074Z,79.00
2022-10-17T02:16:52.935Z,78.92
2022-10-17T02:19:58.046Z,78.94
2022-10-17T02:22:43.342Z,78.93
2022-10-17T02:25:18.227Z,78.73
2022-10-17T02:28:21.150Z,79.01
2022-10-17T02:30:58.529Z,79.30
2022-10-17T02:33:35.665Z,79.51
2022-10-17T02:36:09.762Z,79.54
2022-10-17T02:38:39.447Z,79.45
2022-10-17T02:41:12.792Z,79.63
2022-10-17T02:43:43.521Z,79.37
2022-10-17T02:46:21.320Z,79.38
2022-10-17T02:48:59.707Z,79.34
2022-10-17T02:51:41.986Z,79.48
2022-10-17T02:54:19.071Z,79.46
2022-10-17T02:57:20.788Z,79.39
2022-10-17T02:59:50.343Z,79.28
2022-10-17T03:02:18.577Z,79.72
2022-10-17T03:04:47.855Z,79.38
2022-10-17T03:07:17.111Z,79.03
2022-10-17T03:09:45.162Z,78.80
2022-10-17T03:12:13.318Z,78.99
2022-10-17T03:14:42.142Z,79.35
2022-10-17T03:17:10.119Z,79.46
2022-10-17T03:19:38.127Z,79.18
2022-10-17T03:22:06.315Z,78.69
2022-10-17T03:24:35.358Z,79.02
2022-10-17T03:27:03.939Z,78.70
2022-10-17T03:29:32.067Z,78.36
2022-10-17T03:32:00.127Z,78.41
2022-10-17T03:34:28.208Z,78.27
2022-10-17T03:36:56.520Z,78.56
2022-10-17T03:39:25.046Z,78.86
2022-10-17T03:41:53.272Z,78.63
2022-10-17T03:44:21.600Z,78.54
2022-10-17T03:46:49.918Z,78.18
2022-10-17T03:49:17.931Z,78.32
2022-10-17T03:51:46.025Z,78.54
2022-10-17T03:54:15.902Z,78.78
2022-10-17T03:56:44.037Z,78.64
2022-10-17T03:59:15.912Z,78.65
2022-10-17T04:01:48.789Z,78.54
2022-10-17T04:04:18.501Z,79.09
2022-10-17T04:06:46.463Z,79.18
2022-10-17T04:09:15.266Z,78.32
2022-10-17T04:11:50.020Z,77.93
2022-10-17T04:14:18.359Z,78.19
2022-10-17T04:16:46.891Z,78.54
2022-10-17T04:19:18.418Z,78.60
2022-10-17T04:21:47.864Z,78.77
2022-10-17T04:24:16.747Z,78.76
2022-10-17T04:26:51.036Z,78.78
2022-10-17T04:29:19.413Z,79.20
2022-10-17T04:31:50.060Z,79.13
2022-10-17T04:34:21.689Z,79.16
2022-10-17T04:36:51.949Z,79.21
2022-10-17T04:39:20.396Z,79.28
2022-10-17T04:41:48.632Z,79.21
2022-10-17T04:44:16.796Z,78.99
2022-10-17T04:46:49.117Z,78.63
2022-10-17T04:49:17.167Z,78.41
2022-10-17T04:51:47.260Z,78.45
2022-10-17T04:54:26.183Z,78.67
2022-10-17T04:56:59.903Z,78.53
2022-10-17T04:59:29.211Z,78.52
2022-10-17T05:02:06.438Z,78.57
2022-10-17T05:04:34.751Z,78.54
2022-10-17T05:07:03.646Z,78.65
2022-10-17T05:09:43.113Z,78.65
2022-10-17T05:12:11.543Z,78.48
2022-10-17T05:14:41.876Z,78.30
2022-10-17T05:17:11.076Z,78.22
2022-10-17T05:19:40.025Z,78.52
2022-10-17T05:22:09.585Z,78.75
2022-10-17T05:24:39.053Z,78.76
2022-10-17T05:27:08.115Z,78.87
2022-10-17T05:29:36.675Z,79.29
2022-10-17T05:32:11.246Z,79.55
2022-10-17T05:34:39.531Z,79.61
2022-10-17T05:37:07.735Z,79.67
2022-10-17T05:39:36.309Z,80.16
2022-10-17T05:42:05.136Z,80.41
2022-10-17T05:44:34.445Z,80.50
2022-10-17T05:47:02.773Z,80.60
2022-10-17T05:49:43.550Z,80.32
2022-10-17T05:52:14.982Z,79.92
2022-10-17T05:55:05.117Z,80.19
2022-10-17T05:57:33.199Z,80.18
2022-10-17T06:00:01.839Z,80.38
2022-10-17T06:02:46.201Z,80.33
2022-10-17T06:05:16.438Z,80.30
2022-10-17T06:07:44.833Z,80.18
2022-10-17T06:10:16.516Z,80.29
2022-10-17T06:12:45.767Z,80.06
2022-10-17T06:15:13.886Z,80.44
2022-10-17T06:17:45.291Z,80.94
2022-10-17T06:20:14.176Z,81.36
2022-10-17T06:22:43.604Z,81.43
2022-10-17T06:25:16.955Z,82.02
2022-10-17T06:27:47.343Z,82.45
2022-10-17T06:30:15.656Z,82.69
2022-10-17T06:32:44.464Z,82.70
2022-10-17T06:35:13.081Z,82.74
2022-10-17T06:37:42.197Z,82.83
2022-10-17T06:40:13.342Z,83.16
2022-10-17T06:42:41.733Z,83.05
2022-10-17T06:45:26.112Z,83.02
2022-10-17T06:48:15.909Z,83.19
2022-10-17T06:50:46.667Z,83.06
2022-10-17T06:53:22.170Z,83.03
2022-10-17T06:56:10.466Z,83.07
2022-10-17T06:59:10.011Z,83.10
2022-10-17T07:01:43.096Z,82.92
2022-10-17T07:04:15.929Z,82.97
2022-10-17T07:06:44.817Z,82.98
2022-10-17T07:09:17.700Z,82.82
2022-10-17T07:11:47.884Z,82.62
2022-10-17T07:14:19.831Z,82.43
2022-10-17T07:16:50.306Z,82.46
2022-10-17T07:19:25.665Z,81.91
2022-10-17T07:21:55.068Z,81.87
2022-10-17T07:24:24.164Z,81.78
2022-10-17T07:27:05.524Z,81.28
2022-10-17T07:29:34.649Z,81.14
2022-10-17T07:32:09.625Z,80.92
2022-10-17T07:34:39.488Z,80.87
2022-10-17T07:37:11.010Z,80.49
2022-10-17T07:39:42.475Z,80.30
2022-10-17T07:42:12.111Z,80.07
2022-10-17T07:44:40.586Z,79.85
2022-10-17T07:47:08.991Z,79.68
2022-10-17T07:49:42.809Z,79.50
2022-10-17T07:52:12.800Z,79.21
2022-10-17T07:54:41.729Z,78.64
2022-10-17T07:57:10.449Z,78.17
2022-10-17T07:59:40.397Z,77.93
2022-10-17T08:02:32.207Z,77.59
2022-10-17T08:05:00.581Z,77.35
2022-10-17T08:07:30.734Z,76.65
2022-10-17T08:09:59.000Z,76.51
2022-10-17T08:12:27.629Z,76.20
2022-10-17T08:14:56.148Z,75.64
2022-10-17T08:17:26.369Z,75.47
2022-10-17T08:19:54.558Z,75.05
2022-10-17T08:22:23.049Z,74.74
2022-10-17T08:24:51.219Z,74.59
2022-10-17T08:27:24.252Z,74.35
2022-10-17T08:29:53.674Z,74.05
2022-10-17T08:32:28.625Z,73.92
2022-10-17T08:34:58.152Z,73.82
2022-10-17T08:37:27.101Z,73.88
2022-10-17T08:39:56.242Z,73.72
2022-10-17T08:42:41.146Z,73.42
2022-10-17T08:45:56.085Z,72.61
2022-10-17T08:48:26.331Z,72.49
2022-10-17T08:51:02.831Z,72.02
2022-10-17T08:53:39.097Z,71.76
2022-10-17T08:56:47.663Z,71.46
2022-10-17T08:59:20.530Z,71.15
2022-10-17T09:02:05.055Z,70.55
2022-10-17T09:04:53.047Z,70.55
2022-10-17T09:07:59.639Z,70.22
2022-10-17T09:10:37.292Z,70.25
2022-10-17T09:13:14.913Z,69.69
2022-10-17T09:15:50.726Z,69.23
2022-10-17T09:18:36.758Z,69.22
2022-10-17T09:21:18.686Z,68.68
2022-10-17T09:24:09.033Z,68.40
2022-10-17T09:26:41.145Z,68.19
2022-10-17T09:29:23.041Z,68.15
2022-10-17T09:32:05.342Z,67.60
2022-10-17T09:34:33.851Z,67.14
2022-10-17T09:37:03.152Z,66.90
2022-10-17T09:39:33.095Z,66.41
2022-10-17T09:42:03.939Z,66.47
2022-10-17T09:44:34.146Z,65.91
2022-10-17T09:47:24.290Z,65.11
2022-10-17T09:49:53.236Z,64.29
2022-10-17T09:52:41.222Z,64.04
2022-10-17T09:55:20.613Z,63.61
2022-10-17T09:58:00.781Z,63.55
2022-10-17T10:00:38.470Z,63.68
2022-10-17T10:03:13.759Z,63.22
2022-10-17T10:05:44.245Z,62.88
2022-10-17T10:08:19.204Z,62.37
2022-10-17T10:10:58.740Z,61.84
2022-10-17T10:13:27.705Z,61.31
2022-10-17T10:16:15.159Z,61.51
2022-10-17T10:18:45.471Z,61.51
2022-10-17T10:21:20.416Z,61.46
2022-10-17T10:24:10.292Z,61.34
2022-10-17T10:26:46.077Z,60.85
2022-10-17T10:29:27.110Z,60.83
2022-10-17T10:31:56.095Z,60.55
2022-10-17T10:34:30.493Z,60.34
2022-10-17T10:37:17.130Z,60.04
2022-10-17T10:39:52.179Z,59.66
2022-10-17T10:42:31.275Z,59.82
2022-10-17T10:48:36.837Z,59.30
2022-10-17T10:51:19.743Z,59.19
2022-10-17T10:54:14.367Z,59.24
2022-10-17T10:56:49.786Z,59.38
2022-10-17T10:59:33.425Z,58.97
2022-10-17T11:02:31.592Z,58.82
2022-10-17T11:05:07.113Z,58.72
2022-10-17T11:07:41.416Z,58.78
2022-10-17T11:10:19.331Z,58.43
2022-10-17T11:13:05.358Z,57.84
2022-10-17T11:15:51.716Z,57.56
2022-10-17T11:18:39.707Z,57.26
2022-10-17T11:21:16.708Z,56.52
2022-10-17T11:23:48.785Z,56.46
2022-10-17T11:26:26.978Z,56.31
2022-10-17T11:29:02.182Z,56.40
2022-10-17T11:31:53.473Z,55.40
2022-10-17T11:34:27.249Z,54.88
2022-10-17T11:37:04.805Z,55.01
2022-10-17T11:39:49.436Z,54.59
2022-10-17T11:42:24.869Z,54.05
2022-10-17T11:45:00.904Z,53.42
2022-10-17T11:47:40.009Z,53.44
2022-10-17T11:53:19.267Z,53.32
2022-10-17T11:55:51.171Z,53.54
2022-10-17T11:58:25.531Z,53.54
2022-10-17T12:01:06.116Z,53.64
2022-10-17T12:04:12.852Z,53.28
2022-10-17T12:07:04.994Z,53.51
2022-10-17T12:09:45.500Z,53.51
2022-10-17T12:12:31.639Z,53.57
2022-10-17T12:15:23.570Z,53.68
2022-10-17T12:18:03.349Z,53.72
2022-10-17T12:20:36.866Z,53.27
2022-10-17T12:23:11.008Z,52.63
2022-10-17T12:25:52.884Z,52.74
2022-10-17T12:32:15.593Z,52.08
2022-10-17T12:34:54.421Z,51.94
2022-10-17T12:37:57.382Z,51.66
2022-10-17T12:40:36.903Z,51.36
2022-10-17T12:43:13.805Z,51.58
2022-10-17T12:45:51.820Z,51.22
2022-10-17T12:48:35.246Z,50.95
2022-10-17T12:54:12.512Z,51.61
2022-10-17T12:56:49.011Z,51.60
2022-10-17T12:59:23.825Z,52.06
2022-10-17T13:02:00.192Z,51.78
2022-10-17T13:04:32.109Z,52.31
2022-10-17T13:07:01.541Z,52.22
2022-10-17T13:09:39.458Z,51.89
2022-10-17T13:12:18.604Z,52.05
2022-10-17T13:14:48.193Z,52.12
2022-10-17T13:17:24.155Z,52.02
2022-10-17T13:19:53.338Z,51.76
2022-10-17T13:22:25.122Z,51.47
2022-10-17T13:25:08.762Z,51.65
2022-10-17T13:27:37.945Z,51.90
2022-10-17T13:30:34.116Z,51.75
2022-10-17T13:33:03.500Z,51.47
2022-10-17T13:35:59.034Z,51.63
2022-10-17T13:38:29.193Z,51.71
2022-10-17T13:41:10.833Z,51.76
2022-10-17T13:43:46.561Z,51.44
2022-10-17T13:46:37.265Z,51.36
2022-10-17T13:49:32.357Z,51.18
2022-10-17T13:52:02.362Z,51.28
2022-10-17T13:54:45.469Z,51.97
2022-10-17T13:57:21.757Z,52.10
2022-10-17T13:59:57.325Z,52.14
2022-10-17T14:02:28.454Z,51.74
2022-10-17T14:05:16.724Z,51.95
2022-10-17T14:08:15.071Z,52.03
2022-10-17T14:10:45.127Z,52.33
2022-10-17T14:13:25.919Z,52.35
2022-10-17T14:15:56.914Z,52.36
2022-10-17T14:18:34.868Z,52.11
2022-10-17T14:24:14.155Z,52.17
2022-10-17T14:27:28.314Z,52.16
2022-10-17T14:30:03.944Z,52.38
2022-10-17T14:32:35.042Z,52.29
2022-10-17T14:35:30.297Z,52.47
2022-10-17T14:37:59.162Z,52.20
2022-10-17T14:40:30.027Z,52.29
2022-10-17T14:43:04.174Z,52.35
2022-10-17T14:45:38.416Z,52.53
2022-10-17T14:48:15.646Z,52.31
2022-10-17T14:51:12.105Z,52.76
2022-10-17T14:53:43.190Z,53.04
2022-10-17T14:56:26.821Z,52.98
2022-10-17T14:58:56.129Z,53.03
2022-10-17T15:01:24.750Z,53.03
2022-10-17T15:03:54.348Z,53.20
2022-10-17T15:06:28.471Z,53.22
2022-10-17T15:08:57.928Z,53.34
2022-10-17T15:11:27.066Z,53.66
2022-10-17T15:13:55.647Z,53.79
2022-10-17T15:16:27.714Z,53.86
2022-10-17T15:18:56.433Z,53.89
2022-10-17T15:21:38.409Z,54.05
2022-10-17T15:24:15.108Z,54.21
2022-10-17T15:26:46.137Z,54.38
2022-10-17T15:29:16.338Z,54.66
2022-10-17T15:31:44.715Z,54.91
2022-10-17T15:34:14.237Z,54.88
2022-10-17T15:36:50.020Z,55.00
2022-10-17T15:39:18.211Z,55.43
2022-10-17T15:41:48.286Z,55.56
2022-10-17T15:44:17.202Z,55.90
2022-10-17T15:46:45.586Z,56.32
2022-10-17T15:49:17.705Z,56.26
2022-10-17T15:51:50.331Z,56.55
2022-10-17T15:54:20.149Z,57.00
2022-10-17T15:56:56.221Z,57.27
2022-10-17T15:59:32.547Z,57.48
2022-10-17T16:02:02.473Z,57.71
2022-10-17T16:04:32.877Z,57.82
2022-10-17T16:07:03.066Z,58.06
2022-10-17T16:09:32.803Z,58.25
2022-10-17T16:12:03.058Z,58.38
2022-10-17T16:14:35.784Z,58.53
2022-10-17T16:17:07.970Z,58.71
2022-10-17T16:19:43.895Z,58.98
2022-10-17T16:22:29.238Z,59.29
2022-10-17T16:25:09.207Z,59.49
2022-10-17T16:27:39.948Z,59.76
2022-10-17T16:30:13.480Z,59.87
2022-10-17T16:32:48.043Z,60.17
2022-10-17T16:35:30.638Z,60.57
2022-10-17T16:38:03.790Z,60.96
2022-10-17T16:40:41.473Z,61.20
2022-10-17T16:43:16.414Z,61.49
2022-10-17T16:45:54.709Z,61.58
2022-10-17T16:48:29.804Z,62.04
2022-10-17T16:51:05.910Z,62.24
2022-10-17T16:53:47.112Z,62.44
2022-10-17T16:56:24.067Z,62.45
2022-10-17T16:58:54.621Z,62.75
2022-10-17T17:01:26.852Z,62.91
2022-10-17T17:04:03.171Z,63.17
2022-10-17T17:06:38.030Z,63.16
2022-10-17T17:09:11.646Z,63.49
2022-10-17T17:11:44.793Z,63.64
2022-10-17T17:14:14.094Z,63.79
2022-10-17T17:16:43.898Z,63.82
2022-10-17T17:19:17.631Z,63.93
2022-10-17T17:21:52.493Z,64.22
2022-10-17T17:24:23.499Z,64.39
2022-10-17T17:26:55.139Z,64.56
2022-10-17T17:29:25.450Z,64.71
2022-10-17T17:31:54.191Z,64.90
2022-10-17T17:34:25.205Z,65.06
2022-10-17T17:36:55.623Z,65.25
2022-10-17T17:39:24.973Z,65.49
2022-10-17T17:41:57.288Z,65.71
2022-10-17T17:44:29.527Z,65.91
2022-10-17T17:46:58.235Z,65.92
2022-10-17T17:49:29.163Z,66.05
2022-10-17T17:52:06.178Z,66.02
2022-10-17T17:54:45.017Z,66.16
2022-10-17T17:57:19.125Z,66.36
2022-10-17T17:59:50.258Z,66.48
2022-10-17T18:02:25.626Z,66.58
2022-10-17T18:04:59.792Z,66.80
2022-10-17T18:07:31.048Z,66.73
2022-10-17T18:10:00.621Z,66.83
2022-10-17T18:12:32.799Z,66.92
2022-10-17T18:15:04.945Z,67.12
2022-10-17T18:17:37.382Z,67.32
2022-10-17T18:20:09.524Z,67.39
2022-10-17T18:22:39.455Z,67.61
2022-10-17T18:25:10.257Z,67.62
2022-10-17T18:27:41.057Z,67.82
2022-10-17T18:30:11.382Z,67.87
2022-10-17T18:32:40.910Z,68.07
2022-10-17T18:35:10.422Z,68.18
2022-10-17T18:37:39.312Z,68.36
2022-10-17T18:40:09.217Z,68.46
2022-10-17T18:42:38.905Z,68.56
2022-10-17T18:45:12.543Z,68.17
2022-10-17T18:47:47.516Z,68.18
2022-10-17T18:50:16.587Z,68.89
2022-10-17T18:52:49.686Z,69.32
2022-10-17T18:55:21.008Z,69.48
2022-10-17T18:57:51.173Z,69.51
2022-10-17T19:00:20.780Z,69.60
2022-10-17T19:02:49.867Z,70.12
2022-10-17T19:05:18.545Z,70.63
2022-10-17T19:07:47.664Z,70.83
2022-10-17T19:10:17.832Z,70.89
2022-10-17T19:12:48.050Z,71.25
2022-10-17T19:15:22.512Z,70.96
2022-10-17T19:18:02.525Z,70.54
2022-10-17T19:20:33.872Z,70.42
2022-10-17T19:23:03.389Z,70.60
2022-10-17T19:25:34.814Z,70.48
2022-10-17T19:28:03.414Z,70.62
2022-10-17T19:30:34.254Z,70.67
2022-10-17T19:33:03.860Z,70.44
2022-10-17T19:35:39.654Z,70.45
2022-10-17T19:38:14.252Z,70.52
2022-10-17T19:40:44.199Z,70.29
2022-10-17T19:43:15.451Z,70.42
2022-10-17T19:45:45.612Z,70.43
2022-10-17T19:48:15.025Z,70.39
2022-10-17T19:50:45.041Z,70.38
2022-10-17T19:53:14.154Z,70.59
2022-10-17T19:55:43.483Z,70.78
2022-10-17T19:58:12.464Z,70.55
2022-10-17T20:00:57.202Z,70.30
2022-10-17T20:03:26.140Z,70.21
2022-10-17T20:05:55.216Z,70.46
2022-10-17T20:08:23.478Z,70.38
2022-10-17T20:10:52.352Z,70.30
2022-10-17T20:13:21.854Z,70.19
2022-10-17T20:15:57.813Z,69.94
2022-10-17T20:18:27.198Z,69.61
2022-10-17T20:20:55.915Z,69.40
2022-10-17T20:23:24.150Z,69.04
2022-10-17T20:26:08.690Z,68.64
2022-10-17T20:28:50.485Z,68.54
2022-10-17T20:31:20.027Z,68.17
2022-10-17T20:33:48.342Z,68.28
2022-10-17T20:36:17.053Z,68.21
2022-10-17T20:38:45.370Z,68.06
2022-10-17T20:41:13.709Z,67.84
2022-10-17T20:43:42.472Z,67.63
2022-10-17T20:46:29.520Z,67.22
2022-10-17T20:49:07.471Z,66.79
2022-10-17T20:51:36.603Z,66.60
2022-10-17T20:54:05.568Z,66.36
2022-10-17T20:56:35.256Z,66.04
2022-10-17T20:59:07.902Z,65.50
2022-10-17T21:01:36.606Z,65.22
2022-10-17T21:06:53.956Z,65.01
2022-10-17T21:09:22.610Z,64.99
2022-10-17T21:11:55.338Z,64.85
2022-10-17T21:14:25.217Z,64.67
2022-10-17T21:16:53.494Z,64.50
2022-10-17T21:19:22.055Z,64.44
2022-10-17T21:21:50.795Z,64.52
2022-10-17T21:24:20.902Z,64.45
2022-10-17T21:26:55.616Z,64.27
2022-10-17T21:29:24.660Z,64.15
2022-10-17T21:31:53.052Z,64.28
2022-10-17T21:34:24.781Z,64.26
2022-10-17T21:36:54.495Z,64.18
2022-10-17T21:39:25.236Z,64.42
2022-10-17T21:41:54.410Z,64.46
2022-10-17T21:44:26.655Z,64.30
2022-10-17T21:46:56.215Z,64.27
2022-10-17T21:49:25.787Z,64.42
2022-10-17T21:51:54.340Z,64.48
2022-10-17T21:54:23.643Z,64.53
2022-10-17T21:56:53.125Z,64.77
2022-10-17T21:59:21.618Z,64.80
2022-10-17T22:01:50.022Z,64.88
2022-10-17T22:04:20.211Z,65.05
2022-10-17T22:06:53.452Z,65.14
2022-10-17T22:09:25.091Z,65.26
2022-10-17T22:11:56.615Z,65.35
2022-10-17T22:14:27.917Z,65.53
2022-10-17T22:16:56.860Z,65.59
2022-10-17T22:19:27.558Z,65.69
2022-10-17T22:21:56.540Z,65.72
2022-10-17T22:24:25.608Z,65.69
2022-10-17T22:26:58.152Z,65.62
2022-10-17T22:29:28.133Z,65.40
2022-10-17T22:31:56.224Z,65.34
2022-10-17T22:34:24.568Z,65.26
2022-10-17T22:36:53.175Z,65.23
2022-10-17T22:39:21.915Z,65.25
2022-10-17T22:41:50.122Z,65.21
2022-10-17T22:44:18.161Z,65.14
2022-10-17T22:46:46.138Z,65.19
2022-10-17T22:49:14.311Z,65.10
2022-10-17T22:51:43.397Z,65.20
2022-10-17T22:54:11.893Z,65.05
2022-10-17T22:56:40.307Z,65.06
2022-10-17T22:59:08.549Z,65.15
2022-10-17T23:01:36.611Z,65.34
2022-10-17T23:04:04.751Z,65.23
2022-10-17T23:06:32.765Z,65.29
2022-10-17T23:09:00.775Z,65.40
2022-10-17T23:11:29.392Z,65.42
2022-10-17T23:13:57.614Z,65.45
2022-10-17T23:16:25.682Z,65.59
2022-10-17T23:18:54.450Z,65.62
2022-10-17T23:21:23.048Z,65.64
2022-10-17T23:23:51.060Z,65.61
2022-10-17T23:26:19.019Z,65.70
2022-10-17T23:28:47.247Z,65.73
2022-10-17T23:31:18.368Z,65.80
2022-10-17T23:33:48.275Z,65.65
2022-10-17T23:36:18.640Z,65.54
2022-10-17T23:38:48.062Z,65.70
2022-10-17T23:41:17.109Z,65.94
2022-10-17T23:43:45.279Z,65.86
2022-10-17T23:46:13.574Z,65.93
2022-10-17T23:48:41.961Z,65.83
2022-10-17T23:51:10.849Z,65.86
2022-10-17T23:53:40.039Z,66.17
2022-10-17T23:56:10.274Z,66.22
2022-10-17T23:58:39.627Z,66.28
